createdAt,value
2018-06-14T00:00:45.524Z,94083.00
2018-06-14T00:03:11.872Z,94067.20
2018-06-14T00:05:38.316Z,94084.39
2018-06-14T00:08:04.787Z,94085.87
2018-06-14T00:10:31.109Z,94086.40
2018-06-14T00:12:57.703Z,94086.23
2018-06-14T00:15:24.269Z,94088.91
2018-06-14T00:17:50.945Z,94087.88
2018-06-14T00:20:17.313Z,94087.41
2018-06-14T00:22:43.662Z,94086.77
2018-06-14T00:25:10.017Z,94100.48
2018-06-14T00:27:36.374Z,94098.41
2018-06-14T00:30:03.103Z,94110.47
2018-06-14T00:32:29.738Z,94103.61
2018-06-14T00:34:56.437Z,94103.10
2018-06-14T00:37:23.007Z,94095.70
2018-06-14T00:39:49.329Z,94096.88
2018-06-14T00:42:15.847Z,94097.28
2018-06-14T00:44:42.616Z,94097.22
2018-06-14T00:47:09.016Z,94101.80
2018-06-14T00:49:35.452Z,94101.50
2018-06-14T00:52:02.185Z,94096.70
2018-06-14T00:54:28.643Z,94090.62
2018-06-14T00:56:54.984Z,94086.64
2018-06-14T00:59:21.365Z,94088.80
2018-06-14T01:01:47.917Z,94089.91
2018-06-14T01:04:14.350Z,94091.17
2018-06-14T01:06:40.704Z,94083.06
2018-06-14T01:09:07.156Z,94081.95
2018-06-14T01:11:33.510Z,94079.20
2018-06-14T01:13:59.835Z,94083.64
2018-06-14T01:16:26.156Z,94083.44
2018-06-14T01:18:52.542Z,94094.16
2018-06-14T01:21:19.148Z,94097.41
2018-06-14T01:23:45.735Z,94096.06
2018-06-14T01:26:12.415Z,94096.48
2018-06-14T01:28:38.975Z,94088.27
2018-06-14T01:31:05.339Z,94088.73
2018-06-14T01:33:31.690Z,94088.52
2018-06-14T01:35:58.009Z,94076.14
2018-06-14T01:38:24.668Z,94070.01
2018-06-14T01:40:51.322Z,94072.59
2018-06-14T01:43:17.659Z,94068.30
2018-06-14T01:45:44.040Z,94060.04
2018-06-14T01:48:10.361Z,94051.71
2018-06-14T01:50:36.774Z,94053.14
2018-06-14T01:53:03.093Z,94065.72
2018-06-14T01:55:29.439Z,94072.09
2018-06-14T01:57:56.274Z,94073.92
2018-06-14T02:00:22.662Z,94069.66
2018-06-14T02:02:49.014Z,94066.48
2018-06-14T02:05:15.558Z,94058.05
2018-06-14T02:07:41.981Z,94056.17
2018-06-14T02:10:08.312Z,94047.33
2018-06-14T02:12:34.750Z,94058.59
2018-06-14T02:15:01.202Z,94065.26
2018-06-14T02:17:27.534Z,94062.63
2018-06-14T02:19:53.919Z,94067.08
2018-06-14T02:22:20.264Z,94067.88
2018-06-14T02:24:46.802Z,94075.97
2018-06-14T02:27:13.135Z,94069.64
2018-06-14T02:29:39.503Z,94072.58
2018-06-14T02:32:05.824Z,94066.53
2018-06-14T02:34:32.193Z,94068.95
2018-06-14T02:36:58.600Z,94076.05
2018-06-14T02:39:25.184Z,94073.09
2018-06-14T02:41:51.551Z,94067.66
2018-06-14T02:44:17.891Z,94070.36
2018-06-14T02:46:44.264Z,94071.47
2018-06-14T02:49:10.603Z,94066.72
2018-06-14T02:51:37.042Z,94076.86
2018-06-14T02:54:03.377Z,94089.50
2018-06-14T02:56:29.717Z,94087.06
2018-06-14T02:58:56.086Z,94085.87
2018-06-14T03:01:22.473Z,94093.67
2018-06-14T03:03:48.856Z,94084.13
2018-06-14T03:06:15.238Z,94088.20
2018-06-14T03:08:41.561Z,94097.25
2018-06-14T03:11:08.052Z,94102.87
2018-06-14T03:13:34.453Z,94106.20
2018-06-14T03:16:00.881Z,94106.73
2018-06-14T03:18:27.191Z,94109.44
2018-06-14T03:20:53.560Z,94104.69
2018-06-14T03:23:20.033Z,94106.84
2018-06-14T03:25:46.403Z,94101.46
2018-06-14T03:28:12.872Z,94091.84
2018-06-14T03:30:39.225Z,94099.52
2018-06-14T03:33:05.705Z,94089.27
2018-06-14T03:35:32.083Z,94089.69
2018-06-14T03:37:58.482Z,94084.66
2018-06-14T03:40:24.880Z,94082.23
2018-06-14T03:42:51.216Z,94086.69
2018-06-14T03:45:17.672Z,94084.69
2018-06-14T03:47:44.080Z,94078.66
2018-06-14T03:50:10.464Z,94072.10
2018-06-14T03:52:36.882Z,94071.17
2018-06-14T03:55:03.383Z,94067.07
2018-06-14T03:57:29.748Z,94071.71
2018-06-14T03:59:56.076Z,94062.22
2018-06-14T04:02:22.454Z,94063.31
2018-06-14T04:04:48.788Z,94061.26
2018-06-14T04:07:15.325Z,94068.48
2018-06-14T04:09:41.688Z,94066.19
2018-06-14T04:12:08.200Z,94076.20
2018-06-14T04:14:34.655Z,94093.31
2018-06-14T04:17:01.021Z,94093.33
2018-06-14T04:19:27.419Z,94093.61
2018-06-14T04:21:53.863Z,94086.22
2018-06-14T04:24:20.282Z,94086.82
2018-06-14T04:26:46.691Z,94087.16
2018-06-14T04:29:13.045Z,94098.00
2018-06-14T04:31:39.516Z,94103.83
2018-06-14T04:34:06.015Z,94111.70
2018-06-14T04:36:32.486Z,94095.56
2018-06-14T04:38:59.176Z,94090.59
2018-06-14T04:41:25.517Z,94094.14
2018-06-14T04:43:51.983Z,94094.95
2018-06-14T04:46:18.477Z,94099.77
2018-06-14T04:48:44.970Z,94106.27
2018-06-14T04:51:11.343Z,94096.60
2018-06-14T04:53:37.784Z,94093.86
2018-06-14T04:56:04.176Z,94095.66
2018-06-14T04:58:30.600Z,94097.30
2018-06-14T05:00:57.287Z,94103.05
2018-06-14T05:03:23.869Z,94096.83
2018-06-14T05:05:50.309Z,94106.22
2018-06-14T05:08:16.734Z,94104.91
2018-06-14T05:10:43.569Z,94108.03
2018-06-14T05:13:10.230Z,94102.52
2018-06-14T05:15:36.726Z,94106.67
2018-06-14T05:18:03.937Z,94110.89
2018-06-14T05:20:30.377Z,94106.72
2018-06-14T05:22:56.794Z,94099.56
2018-06-14T05:27:44.133Z,94107.58
2018-06-14T05:30:10.565Z,94114.02
2018-06-14T05:32:36.923Z,94117.77
2018-06-14T05:35:03.404Z,94105.89
2018-06-14T05:37:30.174Z,94098.12
2018-06-14T05:39:56.617Z,94094.36
2018-06-14T05:42:23.051Z,94089.20
2018-06-14T05:44:49.368Z,94082.19
2018-06-14T05:47:15.949Z,94068.87
2018-06-14T05:49:42.321Z,94072.06
2018-06-14T05:52:08.717Z,94083.38
2018-06-14T05:54:35.241Z,94092.45
2018-06-14T05:57:01.724Z,94090.89
2018-06-14T05:59:28.200Z,94085.80
2018-06-14T06:01:54.914Z,94083.66
2018-06-14T06:04:21.512Z,94088.07
2018-06-14T06:06:48.049Z,94092.28
2018-06-14T06:09:14.533Z,94096.73
2018-06-14T06:11:41.060Z,94098.20
2018-06-14T06:14:07.718Z,94094.84
2018-06-14T06:16:34.847Z,94103.81
2018-06-14T06:19:01.352Z,94107.64
2018-06-14T06:21:27.999Z,94095.03
2018-06-14T06:23:54.554Z,94093.51
2018-06-14T06:26:21.289Z,94095.55
2018-06-14T06:28:47.904Z,94105.54
2018-06-14T06:31:14.667Z,94117.64
2018-06-14T06:33:41.173Z,94121.91
2018-06-14T06:36:07.886Z,94109.04
2018-06-14T06:38:34.344Z,94104.35
2018-06-14T06:41:01.299Z,94118.87
2018-06-14T06:43:27.976Z,94131.98
2018-06-14T06:45:54.746Z,94128.52
2018-06-14T06:48:21.180Z,94123.05
2018-06-14T06:50:47.590Z,94132.19
2018-06-14T06:53:14.279Z,94138.38
2018-06-14T06:55:41.188Z,94140.08
2018-06-14T06:58:08.043Z,94135.49
2018-06-14T07:00:34.936Z,94130.28
2018-06-14T07:03:01.860Z,94133.66
2018-06-14T07:05:28.839Z,94140.01
2018-06-14T07:07:55.790Z,94149.52
2018-06-14T07:10:22.357Z,94135.29
2018-06-14T07:12:49.340Z,94139.30
2018-06-14T07:15:16.348Z,94147.09
2018-06-14T07:17:42.796Z,94146.91
2018-06-14T07:20:10.429Z,94145.76
2018-06-14T07:22:37.051Z,94147.39
2018-06-14T07:25:03.859Z,94144.81
2018-06-14T07:27:30.633Z,94146.98
2018-06-14T07:29:57.841Z,94151.16
2018-06-14T07:32:24.756Z,94149.39
2018-06-14T07:34:51.298Z,94149.59
2018-06-14T07:37:18.147Z,94150.69
2018-06-14T07:39:44.810Z,94157.02
2018-06-14T07:42:12.464Z,94161.27
2018-06-14T07:44:39.051Z,94171.91
2018-06-14T07:47:05.574Z,94176.63
2018-06-14T07:49:31.936Z,94183.74
2018-06-14T07:51:58.523Z,94188.36
2018-06-14T07:54:25.133Z,94187.52
2018-06-14T07:56:51.631Z,94204.79
2018-06-14T07:59:18.064Z,94208.05
2018-06-14T08:01:44.520Z,94208.05
2018-06-14T08:04:10.880Z,94208.87
2018-06-14T08:06:37.377Z,94211.31
2018-06-14T08:09:04.257Z,94214.52
2018-06-14T08:11:31.023Z,94214.73
2018-06-14T08:13:58.019Z,94211.39
2018-06-14T08:16:24.884Z,94207.14
2018-06-14T08:18:51.478Z,94209.97
2018-06-14T08:21:18.461Z,94209.22
2018-06-14T08:23:45.102Z,94211.11
2018-06-14T08:26:11.768Z,94211.39
2018-06-14T08:28:38.595Z,94215.30
2018-06-14T08:31:05.287Z,94219.00
2018-06-14T08:33:31.965Z,94217.88
2018-06-14T08:35:58.611Z,94223.63
2018-06-14T08:38:25.430Z,94221.52
2018-06-14T08:40:52.056Z,94219.72
2018-06-14T08:43:19.138Z,94224.17
2018-06-14T08:45:45.599Z,94229.00
2018-06-14T08:48:12.415Z,94218.55
2018-06-14T08:50:39.414Z,94228.16
2018-06-14T08:53:06.052Z,94228.99
2018-06-14T08:55:32.545Z,94227.86
2018-06-14T08:57:59.108Z,94232.66
2018-06-14T09:02:58.580Z,94228.89
2018-06-14T09:05:25.499Z,94220.83
2018-06-14T09:07:52.407Z,94219.53
2018-06-14T09:10:19.429Z,94217.50
2018-06-14T09:12:46.321Z,94209.75
2018-06-14T09:15:13.459Z,94221.83
2018-06-14T09:17:40.514Z,94217.37
2018-06-14T09:20:13.257Z,94216.56
2018-06-14T09:22:40.043Z,94210.67
2018-06-14T09:25:06.931Z,94198.98
2018-06-14T09:27:33.932Z,94202.38
2018-06-14T09:30:00.670Z,94210.71
2018-06-14T09:32:27.689Z,94207.82
2018-06-14T09:34:54.343Z,94210.37
2018-06-14T09:37:21.381Z,94217.52
2018-06-14T09:39:56.527Z,94221.22
2018-06-14T09:42:23.236Z,94220.06
2018-06-14T09:44:49.890Z,94213.36
2018-06-14T09:47:17.041Z,94218.56
2018-06-14T09:49:43.741Z,94203.26
2018-06-14T09:52:10.342Z,94194.86
2018-06-14T09:54:38.185Z,94200.58
2018-06-14T09:57:04.909Z,94180.00
2018-06-14T09:59:31.718Z,94185.51
2018-06-14T10:01:58.809Z,94177.14
2018-06-14T10:04:27.944Z,94181.52
2018-06-14T10:06:56.314Z,94191.05
2018-06-14T10:09:23.163Z,94180.32
2018-06-14T10:11:49.698Z,94172.28
2018-06-14T10:14:16.451Z,94162.80
2018-06-14T10:16:44.276Z,94137.82
2018-06-14T10:19:11.068Z,94141.80
2018-06-14T10:21:38.301Z,94140.06
2018-06-14T10:24:05.180Z,94138.20
2018-06-14T10:26:31.961Z,94125.58
2018-06-14T10:28:58.908Z,94127.95
2018-06-14T10:31:28.129Z,94136.33
2018-06-14T10:33:55.478Z,94138.04
2018-06-14T10:36:26.564Z,94129.07
2018-06-14T10:38:53.202Z,94135.47
2018-06-14T10:41:20.038Z,94127.38
2018-06-14T10:43:46.601Z,94133.94
2018-06-14T10:46:14.037Z,94130.88
2018-06-14T10:48:40.861Z,94137.30
2018-06-14T10:51:07.665Z,94131.02
2018-06-14T10:53:34.471Z,94111.56
2018-06-14T10:56:01.333Z,94111.82
2018-06-14T10:58:28.625Z,94113.42
2018-06-14T11:00:55.414Z,94124.25
2018-06-14T11:03:22.329Z,94117.00
2018-06-14T11:05:49.072Z,94117.97
2018-06-14T11:08:15.893Z,94120.73
2018-06-14T11:10:42.603Z,94117.64
2018-06-14T11:13:09.118Z,94128.69
2018-06-14T11:15:35.572Z,94129.57
2018-06-14T11:18:01.992Z,94116.19
2018-06-14T11:20:28.532Z,94118.08
2018-06-14T11:22:55.365Z,94113.42
2018-06-14T11:25:22.104Z,94110.05
2018-06-14T11:27:48.898Z,94117.69
2018-06-14T11:30:16.125Z,94121.22
2018-06-14T11:32:42.558Z,94118.32
2018-06-14T11:35:09.142Z,94118.41
2018-06-14T11:37:35.870Z,94103.41
2018-06-14T11:40:03.358Z,94097.05
2018-06-14T11:42:29.980Z,94095.03
2018-06-14T11:44:56.765Z,94097.26
2018-06-14T11:47:23.244Z,94088.17
2018-06-14T11:49:50.163Z,94094.12
2018-06-14T11:52:16.924Z,94089.73
2018-06-14T11:54:43.707Z,94066.89
2018-06-14T11:57:10.138Z,94070.52
2018-06-14T11:59:36.995Z,94091.86
2018-06-14T12:02:03.654Z,94099.88
2018-06-14T12:04:30.469Z,94093.17
2018-06-14T12:06:57.189Z,94088.23
2018-06-14T12:09:23.969Z,94091.30
2018-06-14T12:11:51.244Z,94089.94
2018-06-14T12:14:18.226Z,94093.49
2018-06-14T12:16:45.235Z,94079.50
2018-06-14T12:31:50.277Z,94079.50
2018-06-14T12:34:18.055Z,94072.86
2018-06-14T12:51:54.876Z,94098.27
2018-06-14T12:54:22.495Z,94106.67
2018-06-14T12:56:50.464Z,94094.08
2018-06-14T13:04:29.194Z,94102.95
2018-06-14T13:06:59.860Z,94108.63
2018-06-14T13:09:27.051Z,94108.05
2018-06-14T13:11:55.128Z,94112.58
2018-06-14T13:14:22.538Z,94103.22
2018-06-14T13:32:19.072Z,94119.20
2018-06-14T13:34:46.499Z,94116.24
2018-06-14T13:47:25.864Z,94097.28
2018-06-14T13:49:53.976Z,94121.32
2018-06-14T13:52:21.724Z,94117.28
2018-06-14T13:54:49.474Z,94126.34
2018-06-14T13:57:20.472Z,94118.05
2018-06-14T13:59:47.525Z,94109.34
2018-06-14T14:02:15.227Z,94117.42
2018-06-14T14:04:45.972Z,94115.41
2018-06-14T14:07:14.265Z,94100.35
2018-06-14T14:09:41.720Z,94099.55
2018-06-14T14:12:08.772Z,94091.39
2018-06-14T14:14:36.252Z,94079.70
2018-06-14T14:17:03.152Z,94080.29
2018-06-14T14:19:31.877Z,94075.36
2018-06-14T14:21:59.168Z,94083.48
2018-06-14T14:24:26.290Z,94069.63
2018-06-14T14:26:53.861Z,94075.45
2018-06-14T14:29:21.659Z,94069.95
2018-06-14T14:31:52.787Z,94055.94
2018-06-14T14:34:20.670Z,94065.88
2018-06-14T14:36:48.609Z,94067.76
2018-06-14T14:39:15.545Z,94058.86
2018-06-14T14:41:42.989Z,94064.27
2018-06-14T14:44:10.180Z,94062.14
2018-06-14T14:46:37.347Z,94071.67
2018-06-14T14:49:04.351Z,94061.44
2018-06-14T14:51:31.506Z,94069.72
2018-06-14T14:53:58.931Z,94073.32
2018-06-14T14:56:26.128Z,94061.78
2018-06-14T14:58:53.750Z,94060.91
2018-06-14T15:01:20.683Z,94066.27
2018-06-14T15:03:48.566Z,94063.79
2018-06-14T15:06:16.434Z,94065.77
2018-06-14T15:08:43.413Z,94066.68
2018-06-14T15:11:10.341Z,94065.86
2018-06-14T15:13:37.018Z,94070.20
2018-06-14T15:16:03.612Z,94066.48
2018-06-14T15:18:30.446Z,94055.64
2018-06-14T15:20:57.109Z,94054.91
2018-06-14T15:23:23.703Z,94059.62
2018-06-14T15:25:51.111Z,94053.97
2018-06-14T15:28:18.483Z,94045.75
2018-06-14T15:30:45.096Z,94043.09
2018-06-14T15:33:11.678Z,94039.92
2018-06-14T15:35:38.293Z,94028.17
2018-06-14T15:38:04.856Z,94016.66
2018-06-14T15:40:31.348Z,94010.27
2018-06-14T15:42:57.864Z,94021.70
2018-06-14T15:45:24.707Z,94005.75
2018-06-14T15:47:51.085Z,94016.63
2018-06-14T15:50:17.546Z,94012.69
2018-06-14T15:52:43.919Z,94011.56
2018-06-14T15:55:10.265Z,94016.59
2018-06-14T15:57:36.871Z,94018.52
2018-06-14T16:00:03.462Z,94022.90
2018-06-14T16:02:29.855Z,94029.61
2018-06-14T16:04:56.229Z,94020.40
2018-06-14T16:07:22.922Z,94023.16
2018-06-14T16:09:49.402Z,94019.77
2018-06-14T16:12:15.849Z,94031.42
2018-06-14T16:14:42.171Z,94040.33
2018-06-14T16:17:08.713Z,94029.64
2018-06-14T16:19:35.506Z,94012.08
2018-06-14T16:22:02.220Z,94015.35
2018-06-14T16:24:28.597Z,94012.80
2018-06-14T16:26:55.285Z,94025.05
2018-06-14T16:29:21.713Z,94032.25
2018-06-14T16:31:48.180Z,94031.05
2018-06-14T16:34:14.678Z,94026.44
2018-06-14T16:36:41.020Z,94033.14
2018-06-14T16:39:07.601Z,94038.50
2018-06-14T16:41:34.052Z,94036.27
2018-06-14T16:44:00.384Z,94039.91
2018-06-14T16:46:26.773Z,94036.33
2018-06-14T16:48:53.164Z,94053.27
2018-06-14T16:51:19.921Z,94060.28
2018-06-14T16:53:46.387Z,94060.59
2018-06-14T16:56:12.830Z,94063.42
2018-06-14T16:58:39.184Z,94068.25
2018-06-14T17:01:05.847Z,94082.02
2018-06-14T17:03:32.404Z,94063.34
2018-06-14T17:05:58.775Z,94088.25
2018-06-14T17:08:26.627Z,94085.67
2018-06-14T17:10:52.974Z,94086.44
2018-06-14T17:13:19.626Z,94093.23
2018-06-14T17:15:46.394Z,94085.34
2018-06-14T17:18:13.420Z,94094.72
2018-06-14T17:20:40.120Z,94088.91
2018-06-14T17:23:06.765Z,94076.09
2018-06-14T17:25:33.380Z,94090.95
2018-06-14T17:27:59.807Z,94100.88
2018-06-14T17:30:26.435Z,94104.14
2018-06-14T17:32:53.751Z,94097.89
2018-06-14T17:35:20.203Z,94101.77
2018-06-14T17:37:46.627Z,94105.09
2018-06-14T17:40:13.030Z,94106.08
2018-06-14T17:42:39.525Z,94104.45
2018-06-14T17:45:05.911Z,94104.05
2018-06-14T17:47:32.266Z,94111.39
2018-06-14T17:49:58.645Z,94111.42
2018-06-14T17:52:26.009Z,94106.05
2018-06-14T17:54:52.730Z,94109.31
2018-06-14T17:57:19.463Z,94104.83
2018-06-14T17:59:46.171Z,94093.23
2018-06-14T18:02:12.571Z,94103.95
2018-06-14T18:04:38.936Z,94090.01
2018-06-14T18:07:05.263Z,94101.87
2018-06-14T18:09:31.734Z,94100.21
2018-06-14T18:11:58.221Z,94101.36
2018-06-14T18:14:24.798Z,94104.63
2018-06-14T18:16:51.290Z,94106.50
2018-06-14T18:19:17.763Z,94103.98
2018-06-14T18:21:47.754Z,94098.17
2018-06-14T18:24:14.164Z,94078.25
2018-06-14T18:26:40.672Z,94102.34
2018-06-14T18:29:07.260Z,94113.30
2018-06-14T18:31:33.872Z,94123.59
2018-06-14T18:34:00.329Z,94131.34
2018-06-14T18:36:27.219Z,94130.02
2018-06-14T18:38:53.847Z,94136.23
2018-06-14T18:41:20.362Z,94143.50
2018-06-14T18:43:46.751Z,94145.74
2018-06-14T18:46:13.064Z,94155.59
2018-06-14T18:48:39.502Z,94155.66
2018-06-14T18:51:05.844Z,94154.25
2018-06-14T18:53:32.173Z,94151.29
2018-06-14T18:55:58.544Z,94155.58
2018-06-14T18:58:25.241Z,94159.36
2018-06-14T19:00:51.684Z,94166.33
2018-06-14T19:03:18.038Z,94163.00
2018-06-14T19:05:44.383Z,94159.69
2018-06-14T19:08:10.888Z,94168.03
2018-06-14T19:10:37.641Z,94168.98
2018-06-14T19:13:04.328Z,94165.10
2018-06-14T19:15:30.719Z,94172.68
2018-06-14T19:17:57.085Z,94169.66
2018-06-14T19:20:23.676Z,94160.61
2018-06-14T19:22:49.993Z,94168.27
2018-06-14T19:25:16.568Z,94168.54
2018-06-14T19:27:42.879Z,94165.27
2018-06-14T19:30:09.413Z,94168.06
2018-06-14T19:32:35.796Z,94183.02
2018-06-14T19:35:02.351Z,94174.76
2018-06-14T19:37:28.713Z,94167.69
2018-06-14T19:39:55.168Z,94178.13
2018-06-14T19:42:22.270Z,94169.96
2018-06-14T19:44:48.589Z,94181.12
2018-06-14T19:47:15.312Z,94174.92
2018-06-14T19:49:41.678Z,94171.49
2018-06-14T19:52:08.179Z,94172.38
2018-06-14T19:54:35.613Z,94165.81
2018-06-14T19:57:01.936Z,94170.74
2018-06-14T19:59:28.841Z,94178.09
2018-06-14T20:01:55.683Z,94172.81
2018-06-14T20:04:22.021Z,94166.66
2018-06-14T20:06:48.371Z,94172.41
2018-06-14T20:09:14.703Z,94175.94
2018-06-14T20:11:41.284Z,94178.86
2018-06-14T20:14:08.075Z,94182.84
2018-06-14T20:16:34.508Z,94184.34
2018-06-14T20:19:00.861Z,94179.41
2018-06-14T20:21:27.243Z,94175.48
2018-06-14T20:23:53.777Z,94167.91
2018-06-14T20:26:20.927Z,94180.39
2018-06-14T20:28:47.270Z,94177.29
2018-06-14T20:31:13.836Z,94181.58
2018-06-14T20:33:40.636Z,94183.34
2018-06-14T20:36:07.201Z,94178.23
2018-06-14T20:38:33.613Z,94171.91
2018-06-14T20:40:59.991Z,94187.35
2018-06-14T20:43:26.844Z,94173.50
2018-06-14T20:45:54.061Z,94175.08
2018-06-14T20:48:20.609Z,94177.66
2018-06-14T20:50:47.259Z,94174.09
2018-06-14T20:53:13.631Z,94173.03
2018-06-14T20:55:40.204Z,94169.46
2018-06-14T20:58:06.673Z,94174.80
2018-06-14T21:00:33.085Z,94162.77
2018-06-14T21:02:59.443Z,94164.59
2018-06-14T21:05:25.783Z,94159.39
2018-06-14T21:07:52.140Z,94160.48
2018-06-14T21:10:18.531Z,94157.80
2018-06-14T21:12:45.050Z,94157.49
2018-06-14T21:15:11.593Z,94147.05
2018-06-14T21:17:38.477Z,94158.85
2018-06-14T21:20:05.104Z,94162.31
2018-06-14T21:22:31.547Z,94158.98
2018-06-14T21:24:57.963Z,94162.14
2018-06-14T21:27:24.558Z,94160.10
2018-06-14T21:29:51.141Z,94160.23
2018-06-14T21:32:17.543Z,94152.52
2018-06-14T21:34:43.932Z,94152.38
2018-06-14T21:37:10.495Z,94162.81
2018-06-14T21:39:37.721Z,94160.73
2018-06-14T21:42:04.116Z,94166.38
2018-06-14T21:44:30.506Z,94172.83
2018-06-14T21:46:56.880Z,94174.53
2018-06-14T21:49:23.287Z,94174.88
2018-06-14T21:51:49.950Z,94174.18
2018-06-14T21:54:16.619Z,94170.23
2018-06-14T21:56:43.102Z,94170.95
2018-06-14T21:59:09.773Z,94169.55
2018-06-14T22:01:36.411Z,94165.44
2018-06-14T22:04:02.858Z,94162.27
2018-06-14T22:06:29.200Z,94162.04
2018-06-14T22:08:55.611Z,94160.10
2018-06-14T22:11:22.832Z,94156.70
2018-06-14T22:13:49.687Z,94159.28
2018-06-14T22:16:16.128Z,94153.53
2018-06-14T22:18:42.746Z,94153.73
2018-06-14T22:21:09.445Z,94152.31
2018-06-14T22:23:36.937Z,94162.57
2018-06-14T22:26:03.280Z,94166.58
2018-06-14T22:28:29.704Z,94160.19
2018-06-14T22:30:56.252Z,94154.55
2018-06-14T22:33:22.633Z,94154.30
2018-06-14T22:35:48.972Z,94154.51
2018-06-14T22:38:15.605Z,94157.77
2018-06-14T22:40:43.301Z,94155.33
2018-06-14T22:43:09.882Z,94160.85
2018-06-14T22:45:36.257Z,94164.83
2018-06-14T22:48:02.709Z,94160.20
2018-06-14T22:50:29.061Z,94170.70
2018-06-14T22:52:56.035Z,94163.66
2018-06-14T22:55:22.494Z,94169.12
2018-06-14T22:57:48.823Z,94178.91
2018-06-14T23:00:15.291Z,94171.97
2018-06-14T23:02:41.664Z,94169.28
2018-06-14T23:05:08.096Z,94162.14
2018-06-14T23:07:34.566Z,94162.73
2018-06-14T23:10:00.901Z,94161.22
2018-06-14T23:12:27.715Z,94168.77
2018-06-14T23:14:54.129Z,94170.30
2018-06-14T23:17:20.493Z,94171.59
2018-06-14T23:19:46.945Z,94169.95
2018-06-14T23:22:14.020Z,94168.30
2018-06-14T23:24:40.355Z,94169.53
2018-06-14T23:27:06.681Z,94165.97
2018-06-14T23:29:33.059Z,94166.20
2018-06-14T23:31:59.518Z,94164.66
2018-06-14T23:34:25.851Z,94167.02
2018-06-14T23:36:52.396Z,94162.39
2018-06-14T23:39:18.759Z,94163.69
2018-06-14T23:41:45.088Z,94178.73
2018-06-14T23:44:11.435Z,94180.62
2018-06-14T23:46:37.975Z,94179.56
2018-06-14T23:49:04.459Z,94170.79
2018-06-14T23:51:30.777Z,94179.82
2018-06-14T23:53:57.092Z,94173.13
2018-06-14T23:56:23.444Z,94178.80
2018-06-14T23:58:49.862Z,94168.59
